createdAt,value
2022-11-29T00:00:46.770Z,12.94
2022-11-29T00:01:49.005Z,13.00
2022-11-29T00:02:49.217Z,12.57
2022-11-29T00:03:47.724Z,12.62
2022-11-29T00:04:48.032Z,12.94
2022-11-29T00:05:48.548Z,13.00
2022-11-29T00:06:48.571Z,13.00
2022-11-29T00:07:48.916Z,13.00
2022-11-29T00:08:51.063Z,12.94
2022-11-29T00:09:51.252Z,13.00
2022-11-29T00:10:50.682Z,13.00
2022-11-29T00:11:50.841Z,12.94
2022-11-29T00:12:51.258Z,12.94
2022-11-29T00:13:52.520Z,12.94
2022-11-29T00:14:52.692Z,12.94
2022-11-29T00:15:51.996Z,12.57
2022-11-29T00:16:52.442Z,12.94
2022-11-29T00:17:52.753Z,13.00
2022-11-29T00:18:54.006Z,13.00
2022-11-29T00:19:53.352Z,13.00
2022-11-29T00:20:55.551Z,12.94
2022-11-29T00:21:52.952Z,13.00
2022-11-29T00:22:53.251Z,13.00
2022-11-29T00:23:55.430Z,13.00
2022-11-29T00:24:53.815Z,12.94
2022-11-29T00:25:54.122Z,12.94
2022-11-29T00:26:55.316Z,12.94
2022-11-29T00:27:54.673Z,13.00
2022-11-29T00:28:55.889Z,13.05
2022-11-29T00:29:57.181Z,12.94
2022-11-29T00:30:57.300Z,12.94
2022-11-29T00:31:57.414Z,12.94
2022-11-29T00:32:58.112Z,13.00
2022-11-29T00:33:58.279Z,12.94
2022-11-29T00:34:59.706Z,13.00
2022-11-29T00:35:58.634Z,13.00
2022-11-29T00:36:59.333Z,12.94
2022-11-29T00:37:57.719Z,12.94
2022-11-29T00:38:58.024Z,12.94
2022-11-29T00:39:59.207Z,12.94
2022-11-29T00:41:00.399Z,12.94
2022-11-29T00:42:00.588Z,13.00
2022-11-29T00:43:00.782Z,12.94
2022-11-29T00:44:01.436Z,12.94
2022-11-29T00:45:01.633Z,12.94
2022-11-29T00:46:01.874Z,12.94
2022-11-29T00:47:02.044Z,12.89
2022-11-29T00:48:02.230Z,12.94
2022-11-29T00:49:02.897Z,13.00
2022-11-29T00:50:03.083Z,12.94
2022-11-29T00:51:01.594Z,13.05
2022-11-29T00:52:03.763Z,13.00
2022-11-29T00:53:03.942Z,13.00
2022-11-29T00:54:02.440Z,12.94
2022-11-29T00:55:04.649Z,12.94
2022-11-29T00:56:03.020Z,13.00
2022-11-29T00:57:05.337Z,12.94
2022-11-29T00:58:05.518Z,13.00
2022-11-29T00:59:07.169Z,13.05
2022-11-29T01:00:04.199Z,13.00
2022-11-29T01:01:06.456Z,12.94
2022-11-29T01:02:04.912Z,13.00
2022-11-29T01:03:05.179Z,13.05
2022-11-29T01:04:07.353Z,13.00
2022-11-29T01:05:05.624Z,13.05
2022-11-29T01:06:07.813Z,13.00
2022-11-29T01:07:06.192Z,12.94
2022-11-29T01:08:06.493Z,13.00
2022-11-29T01:09:08.716Z,12.94
2022-11-29T01:10:07.087Z,12.89
2022-11-29T01:11:07.402Z,13.00
2022-11-29T01:12:07.698Z,13.00
2022-11-29T01:13:08.012Z,13.00
2022-11-29T01:14:10.171Z,12.94
2022-11-29T01:15:10.364Z,13.00
2022-11-29T01:16:08.875Z,13.00
2022-11-29T01:17:11.055Z,12.94
2022-11-29T01:18:09.443Z,13.00
2022-11-29T01:19:10.713Z,12.94
2022-11-29T01:20:11.034Z,12.94
2022-11-29T01:21:11.390Z,13.00
2022-11-29T01:22:12.589Z,12.94
2022-11-29T01:23:10.959Z,13.16
2022-11-29T01:24:11.270Z,13.00
2022-11-29T01:25:11.573Z,12.94
2022-11-29T01:26:13.737Z,12.94
2022-11-29T01:27:13.920Z,13.00
2022-11-29T01:28:12.428Z,12.89
2022-11-29T01:29:12.729Z,12.94
2022-11-29T01:30:13.042Z,12.94
2022-11-29T01:31:13.465Z,12.94
2022-11-29T01:32:15.564Z,13.00
2022-11-29T01:33:13.928Z,13.05
2022-11-29T01:34:14.238Z,12.94
2022-11-29T01:35:14.551Z,12.94
2022-11-29T01:36:14.862Z,13.00
2022-11-29T01:37:17.039Z,13.11
2022-11-29T01:38:17.223Z,12.94
2022-11-29T01:39:15.729Z,13.05
2022-11-29T01:40:16.040Z,12.94
2022-11-29T01:41:16.352Z,13.00
2022-11-29T01:42:16.664Z,12.94
2022-11-29T01:43:18.862Z,12.94
2022-11-29T01:44:17.250Z,12.94
2022-11-29T01:45:17.631Z,12.94
2022-11-29T01:46:17.868Z,13.16
2022-11-29T01:47:19.972Z,13.05
2022-11-29T01:48:20.165Z,13.16
2022-11-29T01:49:20.334Z,13.16
2022-11-29T01:50:21.053Z,13.16
2022-11-29T01:51:21.184Z,13.11
2022-11-29T01:52:19.569Z,13.16
2022-11-29T01:53:21.758Z,13.16
2022-11-29T01:54:21.943Z,13.16
2022-11-29T01:55:22.125Z,13.00
2022-11-29T01:56:22.316Z,13.16
2022-11-29T01:57:21.062Z,13.00
2022-11-29T01:58:23.254Z,13.00
2022-11-29T01:59:23.457Z,13.16
2022-11-29T02:00:21.972Z,13.00
2022-11-29T02:01:23.364Z,13.00
2022-11-29T02:02:22.645Z,13.16
2022-11-29T02:03:22.925Z,13.21
2022-11-29T02:04:25.114Z,12.94
2022-11-29T02:05:23.510Z,12.94
2022-11-29T02:06:23.817Z,13.00
2022-11-29T02:07:24.158Z,13.16
2022-11-29T02:08:24.448Z,13.21
2022-11-29T02:09:26.630Z,13.16
2022-11-29T02:10:26.833Z,13.00
2022-11-29T02:11:25.339Z,13.21
2022-11-29T02:12:25.651Z,13.16
2022-11-29T02:13:25.957Z,13.21
2022-11-29T02:14:28.139Z,13.00
2022-11-29T02:15:27.525Z,13.16
2022-11-29T02:16:28.721Z,13.16
2022-11-29T02:17:28.900Z,13.21
2022-11-29T02:18:29.063Z,13.21
2022-11-29T02:19:29.245Z,13.16
2022-11-29T02:20:29.946Z,13.16
2022-11-29T02:21:30.142Z,13.21
2022-11-29T02:22:30.346Z,13.16
2022-11-29T02:23:30.504Z,13.21
2022-11-29T02:24:31.185Z,13.16
2022-11-29T02:25:31.379Z,13.16
2022-11-29T02:26:33.055Z,13.00
2022-11-29T02:27:31.764Z,13.27
2022-11-29T02:28:32.469Z,13.16
2022-11-29T02:29:32.656Z,13.16
2022-11-29T02:30:32.867Z,13.16
2022-11-29T02:31:33.017Z,13.00
2022-11-29T02:32:33.712Z,13.16
2022-11-29T02:33:32.094Z,13.27
2022-11-29T02:34:34.285Z,13.21
2022-11-29T02:35:32.682Z,13.16
2022-11-29T02:36:32.998Z,13.16
2022-11-29T02:37:33.306Z,13.16
2022-11-29T02:38:33.618Z,13.00
2022-11-29T02:39:35.796Z,13.11
2022-11-29T02:40:34.186Z,13.16
2022-11-29T02:41:35.418Z,13.16
2022-11-29T02:42:34.806Z,13.16
2022-11-29T02:43:37.034Z,13.16
2022-11-29T02:44:37.218Z,13.16
2022-11-29T02:45:35.721Z,13.21
2022-11-29T02:46:36.038Z,13.21
2022-11-29T02:47:36.340Z,13.16
2022-11-29T02:48:36.650Z,13.16
2022-11-29T02:49:38.843Z,13.16
2022-11-29T02:50:37.242Z,13.16
2022-11-29T02:51:38.512Z,13.21
2022-11-29T02:52:37.887Z,13.16
2022-11-29T02:53:38.191Z,13.16
2022-11-29T02:54:38.495Z,13.21
2022-11-29T02:55:40.686Z,13.16
2022-11-29T02:56:41.832Z,13.16
2022-11-29T02:57:39.356Z,13.16
2022-11-29T02:58:39.671Z,13.16
2022-11-29T02:59:41.839Z,13.16
2022-11-29T03:00:41.022Z,13.16
2022-11-29T03:01:42.464Z,13.27
2022-11-29T03:02:40.870Z,13.21
2022-11-29T03:03:41.137Z,13.16
2022-11-29T03:04:42.567Z,13.16
2022-11-29T03:05:43.626Z,13.16
2022-11-29T03:06:43.811Z,13.21
2022-11-29T03:07:42.371Z,13.11
2022-11-29T03:08:42.667Z,13.16
2022-11-29T03:09:42.975Z,13.16
2022-11-29T03:10:45.171Z,13.21
2022-11-29T03:11:43.556Z,13.21
2022-11-29T03:12:45.736Z,13.16
2022-11-29T03:13:44.119Z,13.16
2022-11-29T03:14:44.601Z,13.16
2022-11-29T03:15:46.184Z,13.16
2022-11-29T03:16:45.040Z,13.21
2022-11-29T03:17:47.230Z,13.16
2022-11-29T03:18:45.620Z,13.16
2022-11-29T03:19:45.975Z,13.21
2022-11-29T03:20:48.121Z,13.16
2022-11-29T03:21:48.319Z,13.16
2022-11-29T03:22:46.831Z,13.16
2022-11-29T03:23:47.130Z,13.16
2022-11-29T03:24:49.324Z,12.78
2022-11-29T03:25:49.509Z,13.16
2022-11-29T03:26:49.715Z,13.16
2022-11-29T03:27:48.336Z,13.16
2022-11-29T03:28:48.647Z,13.16
2022-11-29T03:29:48.951Z,13.21
2022-11-29T03:30:51.178Z,13.16
2022-11-29T03:31:50.072Z,13.16
2022-11-29T03:32:49.820Z,12.78
2022-11-29T03:33:50.131Z,13.16
2022-11-29T03:34:55.686Z,13.16
2022-11-29T03:35:53.629Z,13.16
2022-11-29T03:36:52.829Z,12.78
2022-11-29T03:37:53.009Z,13.21
2022-11-29T03:38:53.203Z,13.16
2022-11-29T03:39:53.862Z,13.27
2022-11-29T03:40:54.050Z,13.16
2022-11-29T03:41:54.227Z,13.16
2022-11-29T03:42:52.864Z,13.21
2022-11-29T03:43:55.010Z,13.21
2022-11-29T03:44:55.184Z,13.16
2022-11-29T03:45:55.352Z,13.16
2022-11-29T03:46:55.520Z,13.16
2022-11-29T03:47:56.232Z,13.21
2022-11-29T03:48:56.416Z,13.16
2022-11-29T03:49:56.599Z,13.16
2022-11-29T03:50:56.791Z,13.16
2022-11-29T03:51:57.489Z,13.16
2022-11-29T03:52:57.672Z,13.16
2022-11-29T03:53:57.863Z,13.16
2022-11-29T03:54:58.068Z,13.16
2022-11-29T03:55:58.762Z,12.94
2022-11-29T03:56:58.933Z,13.11
2022-11-29T03:57:59.123Z,13.21
2022-11-29T03:58:59.929Z,13.16
2022-11-29T04:00:00.014Z,13.16
2022-11-29T04:01:00.260Z,13.16
2022-11-29T04:02:00.386Z,13.16
2022-11-29T04:03:00.713Z,13.11
2022-11-29T04:04:00.805Z,13.16
2022-11-29T04:05:01.493Z,13.16
2022-11-29T04:06:01.688Z,13.21
2022-11-29T04:07:01.880Z,13.16
2022-11-29T04:08:02.205Z,13.11
2022-11-29T04:09:02.768Z,13.16
2022-11-29T04:10:02.955Z,13.16
2022-11-29T04:11:03.142Z,13.11
2022-11-29T04:12:03.343Z,13.16
2022-11-29T04:13:04.024Z,13.21
2022-11-29T04:14:02.417Z,13.16
2022-11-29T04:15:02.731Z,13.21
2022-11-29T04:16:04.989Z,13.16
2022-11-29T04:17:03.339Z,13.16
2022-11-29T04:18:03.649Z,13.16
2022-11-29T04:19:05.824Z,13.21
2022-11-29T04:20:04.203Z,13.16
2022-11-29T04:21:04.536Z,13.16
2022-11-29T04:22:04.837Z,13.21
2022-11-29T04:23:07.027Z,13.21
2022-11-29T04:24:05.416Z,13.16
2022-11-29T04:25:07.592Z,13.16
2022-11-29T04:26:05.973Z,13.21
2022-11-29T04:27:08.162Z,13.16
2022-11-29T04:28:06.544Z,13.16
2022-11-29T04:29:08.734Z,13.21
2022-11-29T04:30:07.114Z,13.16
2022-11-29T04:31:09.378Z,13.16
2022-11-29T04:32:07.728Z,13.16
2022-11-29T04:33:09.915Z,13.16
2022-11-29T04:34:08.295Z,13.16
2022-11-29T04:35:10.490Z,13.16
2022-11-29T04:36:08.867Z,13.11
2022-11-29T04:37:09.212Z,13.16
2022-11-29T04:38:09.515Z,13.16
2022-11-29T04:39:09.833Z,13.21
2022-11-29T04:40:12.011Z,13.16
2022-11-29T04:41:10.398Z,13.16
2022-11-29T04:42:11.514Z,13.16
2022-11-29T04:43:12.901Z,13.16
2022-11-29T04:44:11.272Z,13.21
2022-11-29T04:45:14.917Z,13.21
2022-11-29T04:46:11.876Z,13.21
2022-11-29T04:47:14.092Z,13.16
2022-11-29T04:48:12.331Z,13.11
2022-11-29T04:49:12.638Z,13.21
2022-11-29T04:50:14.839Z,13.21
2022-11-29T04:51:15.013Z,13.21
2022-11-29T04:52:13.631Z,13.16
2022-11-29T04:53:13.782Z,13.21
2022-11-29T04:54:14.094Z,13.16
2022-11-29T04:55:23.812Z,13.16
2022-11-29T04:56:15.707Z,13.21
2022-11-29T04:57:15.919Z,13.11
2022-11-29T04:58:15.276Z,13.21
2022-11-29T04:59:15.591Z,13.16
2022-11-29T05:00:15.897Z,13.21
2022-11-29T05:01:18.133Z,13.21
2022-11-29T05:02:16.501Z,13.16
2022-11-29T05:03:16.807Z,13.16
2022-11-29T05:04:17.122Z,13.16
2022-11-29T05:05:19.318Z,12.84
2022-11-29T05:06:17.694Z,13.16
2022-11-29T05:07:19.913Z,13.21
2022-11-29T05:08:18.302Z,13.11
2022-11-29T05:09:18.619Z,13.11
2022-11-29T05:10:18.921Z,13.16
2022-11-29T05:11:24.976Z,13.21
2022-11-29T05:12:22.404Z,13.16
2022-11-29T05:13:19.806Z,13.16
2022-11-29T05:14:20.104Z,13.16
2022-11-29T05:15:20.414Z,13.16
2022-11-29T05:16:20.796Z,13.16
2022-11-29T05:17:22.890Z,13.16
2022-11-29T05:18:21.278Z,13.11
2022-11-29T05:19:21.581Z,13.16
2022-11-29T05:20:21.886Z,13.16
2022-11-29T05:21:22.195Z,13.16
2022-11-29T05:22:24.384Z,13.16
2022-11-29T05:23:22.766Z,13.16
2022-11-29T05:24:23.066Z,13.21
2022-11-29T05:25:23.379Z,13.11
2022-11-29T05:26:25.545Z,13.16
2022-11-29T05:27:25.730Z,13.16
2022-11-29T05:28:25.926Z,13.16
2022-11-29T05:29:26.089Z,13.16
2022-11-29T05:30:26.793Z,13.21
2022-11-29T05:31:25.213Z,13.16
2022-11-29T05:32:27.361Z,13.16
2022-11-29T05:33:27.537Z,13.16
2022-11-29T05:34:33.281Z,13.16
2022-11-29T05:35:27.276Z,13.11
2022-11-29T05:36:28.478Z,13.16
2022-11-29T05:37:28.640Z,13.37
2022-11-29T05:38:28.799Z,13.16
2022-11-29T05:39:28.980Z,13.16
2022-11-29T05:40:29.681Z,13.21
2022-11-29T05:41:29.872Z,13.21
2022-11-29T05:42:30.069Z,13.16
2022-11-29T05:43:30.258Z,13.16
2022-11-29T05:44:30.985Z,13.16
2022-11-29T05:45:29.261Z,13.21
2022-11-29T05:46:29.605Z,13.27
2022-11-29T05:47:31.807Z,13.16
2022-11-29T05:48:30.142Z,13.16
2022-11-29T05:49:32.462Z,13.11
2022-11-29T05:50:31.675Z,13.16
2022-11-29T05:51:31.041Z,12.89
2022-11-29T05:52:31.341Z,13.16
2022-11-29T05:53:31.655Z,13.11
2022-11-29T05:54:31.982Z,13.16
2022-11-29T05:55:34.156Z,13.16
2022-11-29T05:56:32.541Z,13.16
2022-11-29T05:57:32.853Z,13.16
2022-11-29T05:58:35.034Z,13.16
2022-11-29T05:59:35.221Z,13.16
2022-11-29T06:00:35.402Z,13.16
2022-11-29T06:01:35.644Z,13.16
2022-11-29T06:02:36.319Z,13.16
2022-11-29T06:03:36.457Z,13.11
2022-11-29T06:04:36.664Z,13.16
2022-11-29T06:05:36.849Z,13.21
2022-11-29T06:06:37.059Z,13.16
2022-11-29T06:07:37.768Z,13.16
2022-11-29T06:08:37.949Z,13.16
2022-11-29T06:09:38.285Z,13.16
2022-11-29T06:10:38.499Z,13.16
2022-11-29T06:11:38.663Z,13.16
2022-11-29T06:12:39.360Z,13.16
2022-11-29T06:13:39.539Z,13.16
2022-11-29T06:14:38.049Z,13.16
2022-11-29T06:15:40.231Z,13.16
2022-11-29T06:16:38.687Z,13.21
2022-11-29T06:17:40.847Z,13.16
2022-11-29T06:18:39.109Z,13.16
2022-11-29T06:19:41.296Z,13.16
2022-11-29T06:20:41.482Z,13.16
2022-11-29T06:21:39.989Z,13.11
2022-11-29T06:22:42.153Z,13.21
2022-11-29T06:23:40.529Z,13.21
2022-11-29T06:24:42.973Z,13.16
2022-11-29T06:25:42.893Z,13.27
2022-11-29T06:26:41.417Z,13.16
2022-11-29T06:27:41.696Z,13.21
2022-11-29T06:28:42.010Z,13.16
2022-11-29T06:29:44.165Z,13.21
2022-11-29T06:30:44.359Z,13.11
2022-11-29T06:31:42.933Z,13.16
2022-11-29T06:32:43.210Z,13.37
2022-11-29T06:33:43.517Z,13.43
2022-11-29T06:34:44.105Z,13.27
2022-11-29T06:35:46.015Z,13.37
2022-11-29T06:36:47.647Z,13.37
2022-11-29T06:37:44.674Z,13.27
2022-11-29T06:38:45.626Z,13.37
2022-11-29T06:39:45.231Z,13.37
2022-11-29T06:40:47.422Z,13.37
2022-11-29T06:41:46.755Z,13.37
2022-11-29T06:42:47.985Z,13.37
2022-11-29T06:43:46.368Z,13.37
2022-11-29T06:44:47.037Z,13.32
2022-11-29T06:45:48.849Z,13.32
2022-11-29T06:46:47.293Z,13.37
2022-11-29T06:47:47.568Z,13.37
2022-11-29T06:48:49.675Z,13.32
2022-11-29T06:49:48.987Z,13.27
2022-11-29T06:50:49.317Z,13.43
2022-11-29T06:51:49.634Z,13.37
2022-11-29T06:52:49.097Z,13.37
2022-11-29T06:53:49.286Z,13.37
2022-11-29T06:54:49.627Z,13.43
2022-11-29T06:55:49.937Z,13.32
2022-11-29T06:56:50.259Z,13.59
2022-11-29T06:57:50.586Z,13.37
2022-11-29T06:58:52.769Z,13.43
2022-11-29T06:59:52.946Z,13.37
2022-11-29T07:00:51.512Z,13.32
2022-11-29T07:01:53.739Z,13.43
2022-11-29T07:02:51.975Z,13.32
2022-11-29T07:03:52.306Z,13.43
2022-11-29T07:04:52.863Z,13.37
2022-11-29T07:05:52.967Z,13.37
2022-11-29T07:06:55.157Z,13.27
2022-11-29T07:07:53.585Z,13.37
2022-11-29T07:08:53.896Z,13.64
2022-11-29T07:09:56.057Z,13.32
2022-11-29T07:10:54.464Z,13.32
2022-11-29T07:11:55.777Z,13.43
2022-11-29T07:12:55.028Z,13.43
2022-11-29T07:13:57.183Z,13.37
2022-11-29T07:14:57.367Z,13.43
2022-11-29T07:15:57.611Z,13.37
2022-11-29T07:16:57.825Z,13.43
2022-11-29T07:17:58.434Z,13.37
2022-11-29T07:18:58.598Z,13.32
2022-11-29T07:19:58.761Z,13.32
2022-11-29T07:20:58.935Z,13.32
2022-11-29T07:21:58.962Z,13.32
2022-11-29T07:22:59.828Z,13.32
2022-11-29T07:23:58.225Z,13.37
2022-11-29T07:25:00.414Z,13.32
2022-11-29T07:25:58.831Z,13.32
2022-11-29T07:26:59.805Z,13.27
2022-11-29T07:27:59.509Z,13.37
2022-11-29T07:28:59.857Z,13.37
2022-11-29T07:30:02.040Z,13.37
2022-11-29T07:31:00.580Z,13.37
2022-11-29T07:32:00.746Z,13.37
2022-11-29T07:33:01.087Z,13.37
2022-11-29T07:34:03.242Z,13.37
2022-11-29T07:35:03.423Z,13.32
2022-11-29T07:36:03.608Z,13.32
2022-11-29T07:37:03.808Z,13.43
2022-11-29T07:38:04.497Z,13.37
2022-11-29T07:39:03.667Z,13.37
2022-11-29T07:40:04.891Z,13.37
2022-11-29T07:41:05.051Z,13.32
2022-11-29T07:42:05.696Z,13.37
2022-11-29T07:43:05.931Z,13.21
2022-11-29T07:44:06.087Z,13.37
2022-11-29T07:45:06.278Z,13.32
2022-11-29T07:46:06.971Z,13.37
2022-11-29T07:47:07.210Z,13.37
2022-11-29T07:48:07.546Z,13.37
2022-11-29T07:49:07.623Z,13.32
2022-11-29T07:50:09.730Z,13.37
2022-11-29T07:51:08.474Z,13.32
2022-11-29T07:52:06.879Z,13.32
2022-11-29T07:53:07.214Z,13.37
2022-11-29T07:54:07.550Z,13.32
2022-11-29T07:55:12.227Z,13.37
2022-11-29T07:56:08.203Z,13.32
2022-11-29T07:57:08.538Z,13.37
2022-11-29T07:58:10.735Z,13.37
2022-11-29T07:59:09.170Z,13.37
2022-11-29T08:00:09.488Z,13.43
2022-11-29T08:01:09.845Z,13.37
2022-11-29T08:02:11.841Z,13.32
2022-11-29T08:03:12.382Z,13.37
2022-11-29T08:04:10.663Z,13.37
2022-11-29T08:05:11.122Z,13.37
2022-11-29T08:06:14.201Z,13.32
2022-11-29T08:07:13.634Z,13.37
2022-11-29T08:08:11.929Z,13.37
2022-11-29T08:09:14.153Z,13.32
2022-11-29T08:10:12.438Z,13.32
2022-11-29T08:11:17.052Z,13.32
2022-11-29T08:12:13.129Z,13.37
2022-11-29T08:13:13.372Z,13.32
2022-11-29T08:14:13.593Z,13.37
2022-11-29T08:15:13.821Z,13.37
2022-11-29T08:16:14.090Z,13.11
2022-11-29T08:17:16.242Z,13.37
2022-11-29T08:18:17.383Z,13.37
2022-11-29T08:19:14.824Z,13.43
2022-11-29T08:20:17.957Z,13.32
2022-11-29T08:21:17.734Z,13.37
2022-11-29T08:22:15.527Z,13.27
2022-11-29T08:23:15.881Z,13.27
2022-11-29T08:24:16.121Z,13.32
2022-11-29T08:25:18.320Z,13.37
2022-11-29T08:26:16.609Z,13.37
2022-11-29T08:27:18.803Z,13.37
2022-11-29T08:28:17.251Z,13.37
2022-11-29T08:29:17.480Z,13.37
2022-11-29T08:30:17.698Z,13.37
2022-11-29T08:31:17.989Z,13.27
2022-11-29T08:32:20.109Z,13.37
2022-11-29T08:33:18.408Z,13.37
2022-11-29T08:34:18.647Z,13.37
2022-11-29T08:35:18.865Z,13.54
2022-11-29T08:36:19.091Z,13.37
2022-11-29T08:37:21.289Z,13.37
2022-11-29T08:38:20.256Z,13.43
2022-11-29T08:39:20.996Z,13.37
2022-11-29T08:40:20.275Z,13.37
2022-11-29T08:41:22.461Z,13.37
2022-11-29T08:42:22.649Z,13.37
2022-11-29T08:43:21.924Z,13.37
2022-11-29T08:44:21.321Z,13.37
2022-11-29T08:45:21.551Z,13.27
2022-11-29T08:46:23.751Z,13.37
2022-11-29T08:47:25.383Z,13.32
2022-11-29T08:48:22.314Z,13.32
2022-11-29T08:49:24.504Z,13.37
2022-11-29T08:50:22.805Z,13.37
2022-11-29T08:51:24.041Z,13.37
2022-11-29T08:52:25.226Z,13.37
2022-11-29T08:53:23.653Z,13.32
2022-11-29T08:54:23.903Z,13.32
2022-11-29T08:55:26.094Z,13.37
2022-11-29T08:57:10.121Z,13.32
2022-11-29T08:57:39.869Z,13.37
2022-11-29T08:58:25.950Z,13.37
2022-11-29T08:59:25.235Z,13.32
2022-11-29T09:00:27.444Z,13.37
2022-11-29T09:01:25.790Z,13.37
2022-11-29T09:02:25.995Z,13.37
2022-11-29T09:03:28.187Z,13.43
2022-11-29T09:04:26.477Z,13.37
2022-11-29T09:05:28.657Z,13.37
2022-11-29T09:06:27.077Z,13.37
2022-11-29T09:07:27.491Z,13.37
2022-11-29T09:08:29.613Z,13.37
2022-11-29T09:09:28.026Z,13.32
2022-11-29T09:10:30.096Z,13.32
2022-11-29T09:11:29.525Z,13.32
2022-11-29T09:12:30.798Z,13.37
2022-11-29T09:13:29.039Z,13.37
2022-11-29T09:14:31.252Z,13.37
2022-11-29T09:15:31.458Z,13.37
2022-11-29T09:16:29.909Z,13.32
2022-11-29T09:17:32.250Z,13.37
2022-11-29T09:18:30.546Z,13.32
2022-11-29T09:19:31.735Z,13.37
2022-11-29T09:20:32.915Z,13.37
2022-11-29T09:21:32.384Z,13.37
2022-11-29T09:22:31.667Z,13.37
2022-11-29T09:23:31.897Z,13.32
2022-11-29T09:24:32.145Z,13.37
2022-11-29T09:25:34.341Z,13.37
2022-11-29T09:26:34.539Z,13.32
2022-11-29T09:27:34.744Z,13.37
2022-11-29T09:28:34.935Z,13.37
2022-11-29T09:29:35.636Z,13.37
2022-11-29T09:30:34.184Z,13.37
2022-11-29T09:31:36.281Z,13.32
2022-11-29T09:32:36.452Z,13.32
2022-11-29T09:33:36.643Z,13.37
2022-11-29T09:34:37.323Z,13.37
2022-11-29T09:35:37.514Z,13.37
2022-11-29T09:36:37.688Z,13.32
2022-11-29T09:37:37.879Z,13.37
2022-11-29T09:38:38.067Z,13.32
2022-11-29T09:39:38.761Z,13.32
2022-11-29T09:40:39.130Z,13.21
2022-11-29T09:41:41.111Z,13.37
2022-11-29T09:42:38.664Z,13.37
2022-11-29T09:43:39.859Z,13.37
2022-11-29T09:44:40.042Z,13.37
2022-11-29T09:45:40.233Z,13.27
2022-11-29T09:46:40.380Z,13.32
2022-11-29T09:47:41.066Z,13.32
2022-11-29T09:48:41.265Z,13.32
2022-11-29T09:49:41.445Z,13.37
2022-11-29T09:50:41.648Z,13.32
2022-11-29T09:51:44.347Z,13.37
2022-11-29T09:52:42.527Z,13.37
2022-11-29T09:53:42.706Z,13.37
2022-11-29T09:54:43.193Z,13.37
2022-11-29T09:55:43.587Z,13.37
2022-11-29T09:56:43.779Z,13.37
2022-11-29T09:57:45.409Z,13.32
2022-11-29T09:58:44.169Z,13.32
2022-11-29T09:59:44.340Z,13.48
2022-11-29T10:00:45.020Z,13.37
2022-11-29T10:01:45.191Z,13.37
2022-11-29T10:02:45.467Z,13.37
2022-11-29T10:03:44.014Z,13.32
2022-11-29T10:04:46.421Z,13.70
2022-11-29T10:05:46.371Z,13.37
2022-11-29T10:06:46.559Z,13.37
2022-11-29T10:07:46.751Z,13.37
2022-11-29T10:08:45.520Z,13.37
2022-11-29T10:09:45.822Z,13.37
2022-11-29T10:10:48.027Z,13.37
2022-11-29T10:11:48.209Z,13.37
2022-11-29T10:12:46.635Z,13.37
2022-11-29T10:13:46.876Z,13.32
2022-11-29T10:14:47.443Z,13.37
2022-11-29T10:15:47.373Z,13.75
2022-11-29T10:16:49.565Z,13.37
2022-11-29T10:17:49.693Z,13.37
2022-11-29T10:18:48.120Z,13.37
2022-11-29T10:19:50.369Z,13.37
2022-11-29T10:20:49.373Z,13.37
2022-11-29T10:21:50.821Z,13.37
2022-11-29T10:22:51.100Z,13.27
2022-11-29T10:23:49.519Z,13.32
2022-11-29T10:24:50.296Z,13.37
2022-11-29T10:25:50.200Z,13.37
2022-11-29T10:26:52.383Z,13.43
2022-11-29T10:27:50.790Z,13.37
2022-11-29T10:28:51.020Z,13.37
2022-11-29T10:29:51.247Z,13.37
2022-11-29T10:30:51.619Z,13.37
2022-11-29T10:31:53.775Z,13.32
2022-11-29T10:32:52.925Z,13.32
2022-11-29T10:33:54.282Z,13.37
2022-11-29T10:34:53.498Z,13.32
2022-11-29T10:35:52.911Z,13.37
2022-11-29T10:36:53.261Z,13.37
2022-11-29T10:38:22.763Z,13.32
2022-11-29T10:38:56.671Z,13.32
2022-11-29T10:39:54.109Z,13.43
2022-11-29T10:40:54.464Z,13.37
2022-11-29T10:41:54.681Z,13.37
2022-11-29T10:42:56.858Z,13.43
2022-11-29T10:43:57.041Z,13.37
2022-11-29T10:44:55.593Z,13.37
2022-11-29T10:45:55.865Z,13.37
2022-11-29T10:46:56.971Z,13.37
2022-11-29T10:47:58.349Z,13.37
2022-11-29T10:48:58.545Z,13.37
2022-11-29T10:49:57.091Z,13.37
2022-11-29T10:50:57.443Z,13.32
2022-11-29T10:51:59.616Z,13.32
2022-11-29T10:53:00.230Z,13.37
2022-11-29T10:53:58.210Z,13.37
2022-11-29T10:54:58.561Z,13.37
2022-11-29T10:55:58.788Z,13.37
2022-11-29T10:56:59.973Z,13.37
2022-11-29T10:57:59.255Z,13.37
2022-11-29T10:59:00.422Z,13.37
2022-11-29T11:00:01.623Z,13.37
2022-11-29T11:01:00.229Z,13.37
2022-11-29T11:02:02.351Z,13.48
2022-11-29T11:03:00.775Z,13.32
2022-11-29T11:04:01.190Z,13.37
2022-11-29T11:05:01.420Z,13.37
2022-11-29T11:06:01.640Z,13.37
2022-11-29T11:07:03.839Z,13.70
2022-11-29T11:08:02.319Z,13.43
2022-11-29T11:09:02.506Z,13.27
2022-11-29T11:10:02.732Z,13.32
2022-11-29T11:11:02.964Z,13.32
2022-11-29T11:12:05.148Z,13.27
2022-11-29T11:13:03.446Z,13.32
2022-11-29T11:14:03.668Z,13.37
2022-11-29T11:15:03.900Z,13.43
2022-11-29T11:16:04.136Z,13.37
2022-11-29T11:17:06.336Z,13.37
2022-11-29T11:18:04.615Z,13.37
2022-11-29T11:19:06.827Z,13.37
2022-11-29T11:20:07.011Z,13.37
2022-11-29T11:21:07.177Z,13.32
2022-11-29T11:22:06.028Z,13.32
2022-11-29T11:23:07.689Z,13.32
2022-11-29T11:24:07.867Z,13.37
2022-11-29T11:25:08.562Z,13.37
2022-11-29T11:26:08.776Z,13.32
2022-11-29T11:27:08.966Z,13.37
2022-11-29T11:28:09.141Z,13.43
2022-11-29T11:29:09.853Z,13.37
2022-11-29T11:30:10.033Z,13.37
2022-11-29T11:31:10.269Z,13.37
2022-11-29T11:32:08.921Z,13.32
2022-11-29T11:33:11.104Z,13.32
2022-11-29T11:34:09.398Z,13.64
2022-11-29T11:35:13.108Z,13.16
2022-11-29T11:36:10.992Z,13.37
2022-11-29T11:37:10.266Z,13.32
2022-11-29T11:38:12.434Z,13.32
2022-11-29T11:39:10.742Z,13.43
2022-11-29T11:40:12.947Z,13.32
2022-11-29T11:41:11.218Z,13.43
2022-11-29T11:42:11.442Z,13.37
2022-11-29T11:43:11.786Z,13.37
2022-11-29T11:44:15.336Z,13.37
2022-11-29T11:45:15.314Z,13.37
2022-11-29T11:46:17.676Z,13.37
2022-11-29T11:47:14.100Z,13.32
2022-11-29T11:48:13.377Z,13.37
2022-11-29T11:49:13.740Z,13.32
2022-11-29T11:50:15.921Z,13.37
2022-11-29T11:51:16.115Z,13.37
2022-11-29T11:52:16.299Z,13.37
2022-11-29T11:53:16.486Z,13.37
2022-11-29T11:54:16.684Z,13.37
2022-11-29T11:55:17.419Z,13.37
2022-11-29T11:56:17.643Z,13.32
2022-11-29T11:57:17.805Z,13.37
2022-11-29T11:58:17.996Z,13.27
2022-11-29T11:59:18.197Z,13.37
2022-11-29T12:00:34.497Z,13.32
2022-11-29T12:01:18.248Z,13.37
2022-11-29T12:02:19.466Z,13.43
2022-11-29T12:03:19.688Z,13.37
2022-11-29T12:04:19.801Z,13.32
2022-11-29T12:05:20.011Z,13.32
2022-11-29T12:06:20.205Z,13.37
2022-11-29T12:07:33.785Z,13.32
2022-11-29T12:08:20.404Z,13.27
2022-11-29T12:09:21.537Z,13.32
2022-11-29T12:10:21.721Z,13.37
2022-11-29T12:11:21.919Z,13.37
2022-11-29T12:12:22.121Z,13.37
2022-11-29T12:13:22.825Z,13.43
2022-11-29T12:14:21.253Z,13.32
2022-11-29T12:15:23.433Z,13.32
2022-11-29T12:16:21.766Z,13.37
2022-11-29T12:17:21.981Z,13.37
2022-11-29T12:18:22.199Z,13.37
2022-11-29T12:19:22.568Z,13.48
2022-11-29T12:20:22.869Z,13.32
2022-11-29T12:21:25.087Z,13.32
2022-11-29T12:22:23.437Z,13.37
2022-11-29T12:23:23.731Z,13.37
2022-11-29T12:24:25.895Z,13.32
2022-11-29T12:25:24.201Z,13.37
2022-11-29T12:26:55.834Z,13.43
2022-11-29T12:27:25.690Z,13.43
2022-11-29T12:28:24.971Z,13.32
2022-11-29T12:29:25.317Z,13.37
2022-11-29T12:30:27.520Z,13.37
2022-11-29T12:31:25.948Z,13.32
2022-11-29T12:32:26.277Z,13.37
2022-11-29T12:33:26.621Z,13.37
2022-11-29T12:34:26.847Z,13.37
2022-11-29T12:35:29.044Z,13.32
2022-11-29T12:36:27.332Z,13.16
2022-11-29T12:37:27.777Z,13.37
2022-11-29T12:38:27.952Z,13.32
2022-11-29T12:39:28.302Z,13.32
2022-11-29T12:40:30.470Z,13.43
2022-11-29T12:41:30.653Z,13.37
2022-11-29T12:42:29.070Z,13.43
2022-11-29T12:43:30.105Z,13.64
2022-11-29T12:44:30.521Z,13.37
2022-11-29T12:45:29.936Z,13.32
2022-11-29T12:46:30.213Z,13.32
2022-11-29T12:47:36.501Z,13.37
2022-11-29T12:48:30.720Z,13.43
2022-11-29T12:49:31.082Z,13.37
2022-11-29T12:50:31.485Z,13.37
2022-11-29T12:51:31.548Z,13.32
2022-11-29T12:52:33.723Z,13.16
2022-11-29T12:53:32.021Z,13.37
2022-11-29T12:54:32.252Z,13.43
2022-11-29T12:55:34.429Z,13.37
2022-11-29T12:56:32.862Z,13.37